Time;durP1;ratioP1;P1;durP2;ratioP2;P2;SDS_P1;SDS_P2;PMS_P1;PMS_P2;Temp;Humidity;BMP_temperature;BMP_pressure;BME280_temperature;BME280_humidity;BME280_pressure;Samples;Min_cycle;Max_cycle;Signal;HPM_P1;HPM_P2
2022/11/02 00:02:07;;;;;;;;;1.33;1.00;;;;;;;;5097590;27;46300;-73
2022/11/02 00:04:32;;;;;;;;;3.00;1.00;;;;;;;;5097225;27;45403;-73
2022/11/02 00:06:58;;;;;;;;;1.67;0.00;;;;;;;;5103101;27;45528;-72
2022/11/02 00:09:23;;;;;;;;;1.00;1.00;;;;;;;;5098231;27;45208;-72
2022/11/02 00:11:49;;;;;;;;;1.00;1.00;;;;;;;;5101556;27;45386;-72
2022/11/02 00:14:14;;;;;;;;;2.67;1.00;;;;;;;;5092041;27;45297;-72
2022/11/02 00:16:39;;;;;;;;;2.00;2.00;;;;;;;;5095629;27;45435;-72
2022/11/02 00:19:05;;;;;;;;;3.33;1.00;;;;;;;;5091095;27;45902;-72
2022/11/02 00:21:30;;;;;;;;;1.33;1.00;;;;;;;;5078261;27;46588;-73
2022/11/02 00:23:56;;;;;;;;;3.00;1.00;;;;;;;;5089844;27;45362;-72
2022/11/02 00:26:22;;;;;;;;;0.67;0.67;;;;;;;;5078366;27;45337;-72
2022/11/02 00:28:48;;;;;;;;;3.00;2.00;;;;;;;;5088581;27;45304;-72
2022/11/02 00:31:13;;;;;;;;;3.00;2.00;;;;;;;;5094703;27;46112;-72
2022/11/02 00:33:38;;;;;;;;;1.00;1.00;;;;;;;;5089304;27;45335;-72
2022/11/02 00:36:03;;;;;;;;;1.00;1.00;;;;;;;;5094863;27;45699;-72
2022/11/02 00:38:30;;;;;;;;;2.00;2.00;;;;;;;;5088943;27;45430;-72
2022/11/02 00:40:56;;;;;;;;;1.00;1.00;;;;;;;;5096035;27;45276;-72
2022/11/02 00:43:21;;;;;;;;;3.00;2.33;;;;;;;;5092024;27;45560;-72
2022/11/02 00:45:46;;;;;;;;;1.00;1.00;;;;;;;;5096131;27;45258;-72
2022/11/02 00:48:11;;;;;;;;;2.67;1.67;;;;;;;;5094233;27;45244;-72
2022/11/02 00:50:36;;;;;;;;;2.67;0.33;;;;;;;;5094642;27;45524;-72
2022/11/02 00:53:01;;;;;;;;;1.33;1.00;;;;;;;;5091184;27;45215;-72
2022/11/02 00:55:27;;;;;;;;;4.33;1.00;;;;;;;;5091810;27;45268;-72
2022/11/02 00:57:52;;;;;;;;;3.00;1.00;;;;;;;;5093517;27;45410;-72
2022/11/02 01:00:18;;;;;;;;;4.00;1.67;;;;;;;;5069569;27;46995;-72
2022/11/02 01:02:43;;;;;;;;;5.00;3.00;;;;;;;;5097231;27;45382;-72
2022/11/02 01:05:09;;;;;;;;;5.67;2.67;;;;;;;;5096852;27;45209;-72
2022/11/02 01:07:34;;;;;;;;;4.00;3.00;;;;;;;;5094126;27;45341;-72
2022/11/02 01:10:00;;;;;;;;;2.00;1.00;;;;;;;;5088043;27;45296;-72
2022/11/02 01:12:25;;;;;;;;;2.00;2.00;;;;;;;;5090758;27;45438;-72
2022/11/02 01:14:50;;;;;;;;;2.00;0.33;;;;;;;;5088480;27;45648;-72
2022/11/02 01:17:16;;;;;;;;;3.67;2.00;;;;;;;;5073748;27;45647;-72
2022/11/02 01:19:41;;;;;;;;;5.67;2.00;;;;;;;;5075597;27;47462;-72
2022/11/02 01:22:07;;;;;;;;;3.67;1.00;;;;;;;;5088050;27;45264;-72
2022/11/02 01:24:32;;;;;;;;;1.33;1.00;;;;;;;;5085928;27;45505;-72
2022/11/02 01:26:57;;;;;;;;;2.00;1.00;;;;;;;;5099739;27;45272;-72
2022/11/02 01:29:22;;;;;;;;;3.67;2.67;;;;;;;;5085135;27;45290;-72
2022/11/02 01:31:47;;;;;;;;;3.67;1.67;;;;;;;;5078402;27;45492;-72
2022/11/02 01:34:13;;;;;;;;;3.33;1.00;;;;;;;;5088577;27;45400;-72
2022/11/02 01:36:38;;;;;;;;;2.00;1.00;;;;;;;;5094318;27;45356;-72
2022/11/02 01:39:04;;;;;;;;;5.00;1.00;;;;;;;;5086605;27;45414;-72
2022/11/02 01:41:29;;;;;;;;;3.33;1.00;;;;;;;;5071827;27;45532;-72
2022/11/02 01:43:55;;;;;;;;;2.00;1.00;;;;;;;;5099307;27;45219;-72
2022/11/02 01:46:23;;;;;;;;;1.33;1.33;;;;;;;;5078240;27;45964;-72
2022/11/02 01:48:54;;;;;;;;;3.00;1.67;;;;;;;;5087279;27;45275;-72
2022/11/02 01:51:40;;;;;;;;;1.67;1.00;;;;;;;;5095782;27;45280;-72
2022/11/02 01:54:13;;;;;;;;;4.00;1.33;;;;;;;;5075085;27;45327;-72
2022/11/02 01:56:39;;;;;;;;;4.00;1.00;;;;;;;;5074797;27;47128;-72
2022/11/02 01:59:07;;;;;;;;;1.00;1.00;;;;;;;;5090768;27;46455;-72
2022/11/02 02:01:32;;;;;;;;;6.00;1.00;;;;;;;;5094714;27;45586;-72
2022/11/02 02:03:58;;;;;;;;;4.00;2.67;;;;;;;;5077607;27;45438;-72
2022/11/02 02:06:25;;;;;;;;;3.33;1.00;;;;;;;;5094550;27;45479;-72
2022/11/02 02:08:50;;;;;;;;;1.33;1.33;;;;;;;;5081145;27;46369;-72
2022/11/02 02:11:28;;;;;;;;;2.00;0.33;;;;;;;;5093370;27;45394;-72
2022/11/02 02:13:55;;;;;;;;;1.33;1.33;;;;;;;;5088527;27;45565;-73
2022/11/02 02:16:39;;;;;;;;;4.67;2.00;;;;;;;;5096674;27;45489;-73
2022/11/02 02:19:08;;;;;;;;;2.00;2.00;;;;;;;;5083990;27;45472;-72
2022/11/02 02:21:42;;;;;;;;;4.00;1.00;;;;;;;;5092290;27;45248;-72
2022/11/02 02:24:14;;;;;;;;;0.00;0.00;;;;;;;;5076729;27;45244;-73
2022/11/02 02:26:58;;;;;;;;;6.67;1.00;;;;;;;;5098198;27;45252;-73
2022/11/02 02:29:27;;;;;;;;;4.00;1.33;;;;;;;;5084468;27;45449;-72
2022/11/02 02:31:57;;;;;;;;;6.67;3.00;;;;;;;;5090128;27;45329;-73
2022/11/02 02:34:29;;;;;;;;;7.00;1.00;;;;;;;;5086047;27;45362;-73
2022/11/02 02:37:00;;;;;;;;;3.67;1.00;;;;;;;;5071665;28;46303;-72
2022/11/02 02:39:28;;;;;;;;;2.33;2.00;;;;;;;;5093477;27;45270;-73
2022/11/02 02:41:58;;;;;;;;;5.33;1.00;;;;;;;;5091372;27;45379;-72
2022/11/02 02:44:26;;;;;;;;;3.00;1.33;;;;;;;;5084921;27;45457;-73
2022/11/02 02:46:54;;;;;;;;;2.00;1.00;;;;;;;;5086677;27;45364;-73
2022/11/02 02:49:22;;;;;;;;;2.33;1.00;;;;;;;;5064193;28;46766;-72
2022/11/02 02:51:47;;;;;;;;;4.00;2.00;;;;;;;;5089096;27;45479;-73
2022/11/02 02:54:33;;;;;;;;;2.33;1.67;;;;;;;;5086411;27;45244;-73
2022/11/02 02:57:02;;;;;;;;;1.00;1.00;;;;;;;;5091831;27;45608;-72
2022/11/02 02:59:30;;;;;;;;;2.33;1.00;;;;;;;;5096847;27;45180;-72
2022/11/02 03:01:55;;;;;;;;;2.00;2.00;;;;;;;;5073016;27;45512;-73
2022/11/02 03:04:21;;;;;;;;;6.33;0.67;;;;;;;;5092058;27;45398;-72
2022/11/02 03:06:49;;;;;;;;;3.67;1.33;;;;;;;;5094726;27;45426;-72
2022/11/02 03:09:21;;;;;;;;;1.00;1.00;;;;;;;;5088802;27;46856;-72
2022/11/02 03:11:46;;;;;;;;;5.00;2.00;;;;;;;;5097710;27;45391;-72
2022/11/02 03:14:21;;;;;;;;;3.00;1.00;;;;;;;;5085348;27;45268;-72
2022/11/02 03:17:01;;;;;;;;;1.00;1.00;;;;;;;;5091005;27;45376;-72
2022/11/02 03:19:43;;;;;;;;;3.33;1.00;;;;;;;;5078120;27;48472;-73
2022/11/02 03:22:17;;;;;;;;;1.33;1.00;;;;;;;;5088938;27;45398;-72
2022/11/02 03:24:46;;;;;;;;;3.67;1.67;;;;;;;;5086352;27;45415;-72
2022/11/02 03:27:16;;;;;;;;;2.00;2.00;;;;;;;;5095089;27;45351;-73
2022/11/02 03:29:46;;;;;;;;;3.00;1.00;;;;;;;;5084711;27;46281;-72
2022/11/02 03:32:18;;;;;;;;;3.00;1.00;;;;;;;;5086259;27;46406;-72
2022/11/02 03:34:46;;;;;;;;;0.00;0.00;;;;;;;;5085810;27;45326;-72
2022/11/02 03:37:14;;;;;;;;;4.33;1.00;;;;;;;;5096417;27;45238;-72
2022/11/02 03:39:42;;;;;;;;;4.00;2.33;;;;;;;;5084833;27;45327;-72
2022/11/02 03:42:10;;;;;;;;;4.67;2.00;;;;;;;;5070258;28;47273;-72
2022/11/02 03:44:37;;;;;;;;;3.00;2.00;;;;;;;;5079037;27;45179;-72
2022/11/02 03:47:04;;;;;;;;;2.67;2.00;;;;;;;;5090481;27;45269;-72
2022/11/02 03:49:30;;;;;;;;;4.67;3.00;;;;;;;;5091242;27;46926;-72
2022/11/02 03:51:58;;;;;;;;;4.33;2.00;;;;;;;;5090356;27;45356;-72
2022/11/02 03:54:38;;;;;;;;;6.33;2.33;;;;;;;;5092140;27;45457;-72
2022/11/02 03:57:04;;;;;;;;;1.00;1.00;;;;;;;;5089990;27;45233;-72
2022/11/02 03:59:30;;;;;;;;;2.67;2.00;;;;;;;;5085689;27;45486;-72
2022/11/02 04:01:55;;;;;;;;;2.00;2.00;;;;;;;;5091337;27;45904;-73
2022/11/02 04:04:20;;;;;;;;;1.00;1.00;;;;;;;;5078525;27;45503;-73
2022/11/02 04:06:46;;;;;;;;;3.00;2.00;;;;;;;;5091956;27;45361;-72
2022/11/02 04:09:12;;;;;;;;;2.00;2.00;;;;;;;;5091444;27;45344;-72
2022/11/02 04:14:39;;;;;;;;;1.33;1.33;;;;;;;;5094028;27;45344;-73
2022/11/02 04:19:49;;;;;;;;;2.00;1.33;;;;;;;;5088413;27;45384;-73
2022/11/02 04:27:43;;;;;;;;;5.00;2.00;;;;;;;;5095772;27;45527;-72
2022/11/02 04:30:08;;;;;;;;;2.33;2.00;;;;;;;;5088994;27;45363;-72
2022/11/02 04:35:25;;;;;;;;;2.67;2.33;;;;;;;;5092645;27;45326;-72
2022/11/02 04:40:33;;;;;;;;;2.33;1.00;;;;;;;;5097885;27;45554;-73
2022/11/02 04:42:59;;;;;;;;;3.00;1.00;;;;;;;;5088337;27;45346;-72
2022/11/02 04:45:24;;;;;;;;;2.67;2.00;;;;;;;;5094224;27;45277;-72
2022/11/02 04:47:49;;;;;;;;;3.00;1.33;;;;;;;;5096129;27;45248;-73
2022/11/02 04:50:15;;;;;;;;;1.33;1.33;;;;;;;;5091274;27;47095;-72
2022/11/02 04:52:40;;;;;;;;;2.67;2.00;;;;;;;;5095182;27;45810;-72
2022/11/02 04:55:05;;;;;;;;;2.33;1.00;;;;;;;;5094879;27;45202;-72
2022/11/02 04:57:31;;;;;;;;;3.00;2.00;;;;;;;;5080725;27;46541;-73
2022/11/02 04:59:56;;;;;;;;;3.67;2.00;;;;;;;;5088979;27;45302;-72
2022/11/02 05:02:21;;;;;;;;;1.67;1.67;;;;;;;;5082001;27;45243;-72
2022/11/02 05:04:46;;;;;;;;;4.67;2.00;;;;;;;;5092031;27;45220;-73
2022/11/02 05:07:11;;;;;;;;;2.00;2.00;;;;;;;;5092040;27;45194;-73
2022/11/02 05:09:37;;;;;;;;;2.67;2.33;;;;;;;;5092893;27;45471;-73
2022/11/02 05:12:04;;;;;;;;;4.00;2.00;;;;;;;;5071933;28;45331;-73
2022/11/02 05:14:29;;;;;;;;;5.00;2.00;;;;;;;;5098344;27;45279;-72
2022/11/02 05:16:54;;;;;;;;;3.67;1.00;;;;;;;;5100026;27;45306;-73
2022/11/02 05:19:19;;;;;;;;;3.33;2.00;;;;;;;;5089531;27;45364;-72
2022/11/02 05:21:45;;;;;;;;;2.00;1.00;;;;;;;;5089181;27;45347;-72
2022/11/02 05:24:10;;;;;;;;;4.00;2.00;;;;;;;;5084248;27;45442;-73
2022/11/02 05:26:35;;;;;;;;;2.50;1.00;;;;;;;;5094133;27;45406;-73
2022/11/02 05:29:01;;;;;;;;;7.75;1.50;;;;;;;;5081398;27;47344;-72
2022/11/02 05:31:26;;;;;;;;;5.00;3.00;;;;;;;;5091121;27;45323;-72
2022/11/02 05:33:51;;;;;;;;;2.33;2.00;;;;;;;;5083704;27;45514;-73
2022/11/02 05:36:17;;;;;;;;;3.00;1.25;;;;;;;;5089748;27;45521;-73
2022/11/02 05:38:42;;;;;;;;;5.50;3.00;;;;;;;;5079810;27;46904;-74
2022/11/02 05:41:07;;;;;;;;;4.50;1.00;;;;;;;;5077076;27;45410;-72
2022/11/02 05:43:33;;;;;;;;;3.00;2.00;;;;;;;;5078562;27;45323;-72
2022/11/02 05:45:59;;;;;;;;;1.00;1.00;;;;;;;;5095847;27;45233;-72
2022/11/02 05:48:25;;;;;;;;;5.00;2.00;;;;;;;;5092580;27;45328;-72
2022/11/02 05:50:57;;;;;;;;;2.50;2.00;;;;;;;;5082402;27;45514;-73
2022/11/02 05:53:23;;;;;;;;;3.00;2.00;;;;;;;;5093533;27;45439;-72
2022/11/02 05:55:48;;;;;;;;;4.25;2.50;;;;;;;;5067557;27;45614;-72
2022/11/02 05:58:13;;;;;;;;;2.33;1.33;;;;;;;;5082117;27;47032;-73
2022/11/02 06:00:39;;;;;;;;;4.00;1.33;;;;;;;;5075517;27;45268;-73
2022/11/02 06:03:04;;;;;;;;;4.00;2.50;;;;;;;;5093225;27;45394;-72
2022/11/02 06:05:30;;;;;;;;;7.00;3.25;;;;;;;;5087950;27;45568;-72
2022/11/02 06:07:59;;;;;;;;;6.50;3.00;;;;;;;;5081392;27;47761;-71
2022/11/02 06:10:24;;;;;;;;;3.67;2.00;;;;;;;;5094317;27;45434;-71
2022/11/02 06:12:53;;;;;;;;;2.00;1.00;;;;;;;;5098500;27;45519;-71
2022/11/02 06:15:19;;;;;;;;;2.00;0.00;;;;;;;;5083370;27;45348;-71
2022/11/02 06:17:44;;;;;;;;;3.50;1.00;;;;;;;;5089635;27;45390;-72
2022/11/02 06:20:09;;;;;;;;;4.25;2.50;;;;;;;;5077426;27;45707;-71
2022/11/02 06:22:38;;;;;;;;;8.00;2.25;;;;;;;;5093604;27;45384;-71
2022/11/02 06:25:04;;;;;;;;;6.00;3.00;;;;;;;;5086833;27;45304;-72
2022/11/02 06:27:29;;;;;;;;;4.00;2.25;;;;;;;;5090750;27;45505;-73
2022/11/02 06:29:54;;;;;;;;;5.25;2.75;;;;;;;;5086672;27;45162;-71
2022/11/02 06:32:19;;;;;;;;;4.00;3.00;;;;;;;;5068409;28;45255;-71
2022/11/02 06:34:45;;;;;;;;;5.25;2.25;;;;;;;;5080347;27;45882;-71
2022/11/02 06:37:10;;;;;;;;;3.00;2.25;;;;;;;;5097150;27;45664;-71
2022/11/02 06:39:35;;;;;;;;;3.25;1.50;;;;;;;;5098204;27;45359;-71
2022/11/02 06:42:00;;;;;;;;;5.75;3.00;;;;;;;;5098397;27;45505;-71
2022/11/02 06:44:25;;;;;;;;;5.50;2.25;;;;;;;;5090279;27;45379;-72
2022/11/02 06:46:50;;;;;;;;;5.00;3.00;;;;;;;;5080711;27;47437;-72
2022/11/02 06:49:16;;;;;;;;;5.25;2.00;;;;;;;;5087950;27;45409;-72
2022/11/02 06:51:41;;;;;;;;;5.50;3.50;;;;;;;;5099007;27;45386;-72
2022/11/02 06:54:06;;;;;;;;;5.00;3.00;;;;;;;;5096368;27;45417;-75
2022/11/02 06:56:31;;;;;;;;;2.75;2.00;;;;;;;;5080598;27;47888;-74
2022/11/02 06:58:57;;;;;;;;;4.75;2.25;;;;;;;;5091180;27;45242;-73
2022/11/02 07:01:22;;;;;;;;;2.75;2.50;;;;;;;;5068161;28;45418;-73
2022/11/02 07:03:47;;;;;;;;;5.75;2.75;;;;;;;;5089745;27;45335;-75
2022/11/02 07:06:12;;;;;;;;;3.50;3.00;;;;;;;;5088658;27;45409;-74
2022/11/02 07:08:38;;;;;;;;;7.25;3.25;;;;;;;;5096964;27;45462;-73
2022/11/02 07:11:03;;;;;;;;;5.25;2.75;;;;;;;;5098433;27;45284;-73
2022/11/02 07:13:29;;;;;;;;;10.50;3.00;;;;;;;;5072494;27;45449;-73
2022/11/02 07:15:54;;;;;;;;;4.00;2.00;;;;;;;;5083699;27;47298;-73
2022/11/02 07:18:19;;;;;;;;;4.50;3.00;;;;;;;;5086224;27;45266;-72
2022/11/02 07:20:45;;;;;;;;;6.50;2.00;;;;;;;;5088376;27;45239;-72
2022/11/02 07:23:10;;;;;;;;;4.50;4.50;;;;;;;;5084563;27;45353;-72
2022/11/02 07:25:35;;;;;;;;;4.00;3.25;;;;;;;;5094426;27;45483;-72
2022/11/02 07:28:01;;;;;;;;;5.50;2.00;;;;;;;;5092731;27;45393;-73
2022/11/02 07:30:30;;;;;;;;;6.25;4.75;;;;;;;;5074357;27;45428;-72
2022/11/02 07:32:55;;;;;;;;;6.00;3.00;;;;;;;;5084302;27;45215;-72
2022/11/02 07:35:21;;;;;;;;;4.25;3.00;;;;;;;;5097779;27;45957;-72
2022/11/02 07:38:05;;;;;;;;;6.50;2.50;;;;;;;;5095401;27;45402;-72
2022/11/02 07:40:32;;;;;;;;;4.25;4.00;;;;;;;;5101637;27;45362;-73
2022/11/02 07:42:58;;;;;;;;;4.25;2.50;;;;;;;;5097404;27;45384;-73
2022/11/02 07:45:23;;;;;;;;;7.75;4.50;;;;;;;;5080400;27;48512;-73
2022/11/02 07:47:48;;;;;;;;;3.75;1.00;;;;;;;;5092767;27;44757;-73
2022/11/02 07:50:15;;;;;;;;;10.25;2.75;;;;;;;;5100462;27;45403;-72
2022/11/02 07:52:51;;;;;;;;;5.50;3.50;;;;;;;;5081981;27;45345;-73
2022/11/02 07:55:17;;;;;;;;;4.25;3.00;;;;;;;;5082084;27;46406;-73
2022/11/02 07:57:51;;;;;;;;;4.00;4.00;;;;;;;;5076179;27;45272;-71
2022/11/02 08:00:16;;;;;;;;;4.50;2.00;;;;;;;;5097526;27;45273;-73
2022/11/02 08:02:41;;;;;;;;;4.00;2.00;;;;;;;;5097926;27;45207;-75
2022/11/02 08:05:06;;;;;;;;;6.00;2.00;;;;;;;;5101415;27;47639;-73
2022/11/02 08:07:32;;;;;;;;;7.00;3.00;;;;;;;;5097031;27;45401;-74
2022/11/02 08:09:57;;;;;;;;;6.00;3.50;;;;;;;;5081990;27;45229;-73
2022/11/02 08:12:22;;;;;;;;;6.50;4.00;;;;;;;;5081021;27;46001;-73
2022/11/02 08:14:47;;;;;;;;;10.50;4.00;;;;;;;;5083152;27;45188;-73
2022/11/02 08:17:12;;;;;;;;;7.25;4.00;;;;;;;;5092200;27;45251;-73
2022/11/02 08:19:38;;;;;;;;;5.25;3.00;;;;;;;;5100726;27;44719;-73
2022/11/02 08:22:03;;;;;;;;;4.67;2.00;;;;;;;;5090195;27;45501;-73
2022/11/02 08:24:28;;;;;;;;;3.00;1.75;;;;;;;;5082981;27;47266;-73
2022/11/02 08:26:53;;;;;;;;;2.25;2.25;;;;;;;;5079243;27;45665;-74
2022/11/02 08:29:19;;;;;;;;;4.00;2.00;;;;;;;;5079553;27;45546;-73
2022/11/02 08:31:44;;;;;;;;;3.25;2.75;;;;;;;;5089020;27;45288;-73
2022/11/02 08:34:10;;;;;;;;;4.33;2.00;;;;;;;;5087368;27;45342;-73
2022/11/02 08:36:36;;;;;;;;;10.75;5.00;;;;;;;;5094182;27;45357;-73
2022/11/02 08:39:01;;;;;;;;;4.33;3.33;;;;;;;;5081421;27;45353;-73
2022/11/02 08:41:26;;;;;;;;;3.00;2.00;;;;;;;;5093630;27;45818;-72
2022/11/02 08:43:51;;;;;;;;;6.33;2.67;;;;;;;;5084456;27;45339;-72
2022/11/02 08:46:17;;;;;;;;;3.67;2.33;;;;;;;;5086152;27;45395;-72
2022/11/02 08:48:42;;;;;;;;;6.33;2.00;;;;;;;;5081417;27;45398;-72
2022/11/02 08:51:07;;;;;;;;;4.00;3.00;;;;;;;;5079797;27;46340;-73
2022/11/02 08:53:33;;;;;;;;;4.67;4.00;;;;;;;;5086207;27;45304;-73
2022/11/02 08:55:58;;;;;;;;;7.00;3.67;;;;;;;;5085326;27;45351;-72
2022/11/02 08:58:23;;;;;;;;;5.67;2.00;;;;;;;;5086274;27;45347;-72
2022/11/02 09:00:51;;;;;;;;;7.00;2.00;;;;;;;;5080887;27;45510;-72
2022/11/02 09:03:17;;;;;;;;;5.00;2.00;;;;;;;;5086666;27;45337;-72
2022/11/02 09:05:43;;;;;;;;;5.33;3.00;;;;;;;;5066215;27;45363;-72
2022/11/02 09:08:13;;;;;;;;;4.67;3.00;;;;;;;;5087723;27;45418;-72
2022/11/02 09:10:38;;;;;;;;;4.00;2.00;;;;;;;;5082064;27;45355;-72
2022/11/02 09:13:04;;;;;;;;;3.67;3.00;;;;;;;;5084954;27;45351;-72
2022/11/02 09:15:31;;;;;;;;;3.00;3.00;;;;;;;;5081420;27;45357;-72
2022/11/02 09:17:56;;;;;;;;;30.75;27.00;;;;;;;;5087425;27;45352;-71
2022/11/02 09:20:22;;;;;;;;;4.00;1.67;;;;;;;;5080700;27;45149;-72
2022/11/02 09:22:47;;;;;;;;;1.33;1.33;;;;;;;;5088585;27;46535;-72
2022/11/02 09:25:13;;;;;;;;;2.67;1.33;;;;;;;;5092069;27;46003;-71
2022/11/02 09:27:39;;;;;;;;;7.67;4.67;;;;;;;;5088681;27;47158;-71
2022/11/02 09:30:04;;;;;;;;;8.00;5.67;;;;;;;;5080226;27;45242;-72
2022/11/02 09:32:32;;;;;;;;;13.67;6.67;;;;;;;;5092847;27;46532;-71
2022/11/02 09:34:58;;;;;;;;;5.33;2.00;;;;;;;;5088433;27;45280;-72
2022/11/02 09:37:23;;;;;;;;;4.00;2.00;;;;;;;;5085298;27;45540;-72
2022/11/02 09:39:48;;;;;;;;;4.33;3.00;;;;;;;;5083065;27;45656;-72
2022/11/02 09:42:21;;;;;;;;;6.33;5.33;;;;;;;;5084168;27;46074;-73
2022/11/02 09:44:58;;;;;;;;;4.67;3.67;;;;;;;;5082721;27;45425;-73
2022/11/02 09:47:24;;;;;;;;;7.50;6.00;;;;;;;;5086525;27;45386;-72
2022/11/02 09:49:51;;;;;;;;;6.33;1.00;;;;;;;;5082852;27;45812;-72
2022/11/02 09:52:30;;;;;;;;;6.33;3.00;;;;;;;;5085221;27;46756;-72
2022/11/02 09:54:57;;;;;;;;;5.67;5.00;;;;;;;;5082570;27;45407;-72
2022/11/02 09:57:22;;;;;;;;;15.00;10.67;;;;;;;;5085930;27;45359;-72
2022/11/02 09:59:48;;;;;;;;;6.67;3.00;;;;;;;;5081225;27;45710;-72
2022/11/02 10:02:28;;;;;;;;;49.25;38.50;;;;;;;;5089029;27;45424;-71
2022/11/02 10:05:00;;;;;;;;;10.33;7.33;;;;;;;;5082493;27;45336;-73
2022/11/02 10:07:36;;;;;;;;;12.00;6.33;;;;;;;;5086241;27;45474;-73
2022/11/02 10:10:10;;;;;;;;;12.00;10.00;;;;;;;;5079984;27;45224;-72
2022/11/02 10:12:47;;;;;;;;;26.67;21.33;;;;;;;;5085957;27;45468;-72
2022/11/02 10:15:26;;;;;;;;;8.00;4.33;;;;;;;;5079915;27;45470;-73
2022/11/02 10:17:53;;;;;;;;;3.33;2.00;;;;;;;;5088103;27;45359;-73
2022/11/02 10:20:21;;;;;;;;;27.00;22.67;;;;;;;;5079486;27;45412;-72
2022/11/02 10:22:47;;;;;;;;;5.33;2.00;;;;;;;;5095707;27;46392;-73
2022/11/02 10:25:14;;;;;;;;;2.00;2.00;;;;;;;;5081611;27;45318;-73
2022/11/02 10:27:41;;;;;;;;;16.33;15.00;;;;;;;;5080915;27;44856;-73
2022/11/02 10:30:24;;;;;;;;;2.67;1.67;;;;;;;;5083614;27;45519;-73
2022/11/02 10:32:51;;;;;;;;;4.00;3.00;;;;;;;;5083343;27;45768;-74
2022/11/02 10:35:19;;;;;;;;;3.00;2.00;;;;;;;;5081687;27;45347;-74
2022/11/02 10:37:44;;;;;;;;;2.00;2.00;;;;;;;;5083863;27;45565;-73
2022/11/02 10:40:25;;;;;;;;;18.67;16.67;;;;;;;;5094255;27;45276;-73
2022/11/02 10:43:11;;;;;;;;;21.33;15.67;;;;;;;;5092207;27;46259;-73
2022/11/02 10:45:37;;;;;;;;;6.00;3.67;;;;;;;;5062159;27;45542;-73
2022/11/02 10:48:02;;;;;;;;;8.33;6.67;;;;;;;;5080755;27;45872;-76
2022/11/02 10:50:32;;;;;;;;;5.00;2.00;;;;;;;;5096760;27;45315;-78
2022/11/02 10:53:01;;;;;;;;;3.67;3.67;;;;;;;;5095548;27;46215;-77
2022/11/02 10:55:32;;;;;;;;;4.67;2.33;;;;;;;;5093742;27;45465;-77
2022/11/02 10:57:59;;;;;;;;;3.33;3.33;;;;;;;;5086067;27;45540;-78
2022/11/02 11:00:26;;;;;;;;;5.00;2.33;;;;;;;;5079420;27;45300;-75
2022/11/02 11:03:09;;;;;;;;;0.67;0.00;;;;;;;;5088080;27;46131;-76
2022/11/02 11:05:55;;;;;;;;;5.67;2.00;;;;;;;;5066604;27;45201;-77
2022/11/02 11:08:40;;;;;;;;;5.67;2.67;;;;;;;;5096316;27;45458;-74
2022/11/02 11:11:14;;;;;;;;;6.00;3.00;;;;;;;;5097747;27;45700;-74
2022/11/02 11:13:41;;;;;;;;;6.67;2.33;;;;;;;;5086010;27;45268;-76
2022/11/02 11:16:07;;;;;;;;;6.00;4.67;;;;;;;;5076854;27;45382;-75
2022/11/02 11:18:32;;;;;;;;;5.67;4.00;;;;;;;;5073078;27;46501;-75
2022/11/02 11:20:58;;;;;;;;;4.67;2.00;;;;;;;;5081081;27;45552;-74
2022/11/02 11:23:24;;;;;;;;;4.00;2.67;;;;;;;;5062401;27;48284;-74
2022/11/02 11:25:55;;;;;;;;;6.00;2.33;;;;;;;;5096496;27;45356;-74
2022/11/02 11:28:22;;;;;;;;;8.00;6.00;;;;;;;;5079499;27;45437;-74
2022/11/02 11:30:59;;;;;;;;;7.00;4.00;;;;;;;;5095596;27;45743;-75
2022/11/02 11:33:24;;;;;;;;;5.67;3.33;;;;;;;;5087456;27;45378;-75
2022/11/02 11:35:50;;;;;;;;;3.00;2.00;;;;;;;;5085468;27;45364;-75
2022/11/02 11:38:18;;;;;;;;;5.00;3.33;;;;;;;;5088239;27;45288;-75
2022/11/02 11:40:45;;;;;;;;;8.00;7.00;;;;;;;;5084797;27;45281;-75
2022/11/02 11:43:12;;;;;;;;;3.67;3.00;;;;;;;;5077653;27;47417;-75
2022/11/02 11:45:37;;;;;;;;;5.00;3.00;;;;;;;;5085197;27;45570;-75
2022/11/02 11:48:06;;;;;;;;;6.00;3.00;;;;;;;;5094644;27;45312;-75
2022/11/02 11:50:32;;;;;;;;;6.67;5.33;;;;;;;;5085066;27;45173;-76
2022/11/02 11:53:18;;;;;;;;;5.00;3.00;;;;;;;;5091067;27;46166;-74
2022/11/02 11:55:48;;;;;;;;;2.33;2.00;;;;;;;;5089161;27;45431;-75
2022/11/02 11:58:30;;;;;;;;;4.00;1.00;;;;;;;;5088331;27;45422;-75
2022/11/02 12:01:11;;;;;;;;;3.33;2.00;;;;;;;;5085713;27;45669;-76
2022/11/02 12:03:53;;;;;;;;;4.00;2.67;;;;;;;;5084919;27;45383;-76
2022/11/02 12:06:30;;;;;;;;;2.67;2.00;;;;;;;;5096461;27;45338;-76
2022/11/02 12:09:27;;;;;;;;;4.00;2.67;;;;;;;;5085339;27;45366;-75
2022/11/02 12:12:11;;;;;;;;;5.00;2.67;;;;;;;;5038047;27;45352;-75
2022/11/02 12:14:42;;;;;;;;;3.00;2.00;;;;;;;;5081184;27;45460;-77
2022/11/02 12:17:07;;;;;;;;;4.00;2.33;;;;;;;;5089466;27;45511;-77
2022/11/02 12:19:53;;;;;;;;;6.33;4.33;;;;;;;;5081115;27;45249;-76
2022/11/02 12:22:30;;;;;;;;;5.33;3.00;;;;;;;;5092245;27;45556;-75
2022/11/02 12:24:58;;;;;;;;;4.00;3.00;;;;;;;;5082902;27;48051;-75
2022/11/02 12:27:27;;;;;;;;;6.33;3.00;;;;;;;;5098871;27;45328;-75
2022/11/02 12:29:55;;;;;;;;;4.00;2.33;;;;;;;;5099357;27;45426;-74
2022/11/02 12:32:26;;;;;;;;;3.67;3.00;;;;;;;;5091910;27;45426;-74
2022/11/02 12:35:01;;;;;;;;;4.33;2.67;;;;;;;;5086435;27;45391;-74
2022/11/02 12:37:34;;;;;;;;;4.67;3.00;;;;;;;;5090405;27;45508;-75
2022/11/02 12:40:18;;;;;;;;;4.00;3.00;;;;;;;;5090478;27;45405;-70
2022/11/02 12:42:55;;;;;;;;;5.33;3.67;;;;;;;;5090368;27;45316;-72
2022/11/02 12:45:26;;;;;;;;;6.00;3.00;;;;;;;;5066302;27;46250;-75
2022/11/02 12:48:02;;;;;;;;;4.33;1.00;;;;;;;;5096434;27;45288;-73
2022/11/02 12:50:46;;;;;;;;;4.00;1.67;;;;;;;;5095307;27;45324;-74
2022/11/02 12:53:30;;;;;;;;;2.00;2.00;;;;;;;;5077913;28;46173;-75
2022/11/02 12:55:58;;;;;;;;;3.00;2.00;;;;;;;;5086397;27;45516;-74
2022/11/02 12:58:26;;;;;;;;;4.00;3.00;;;;;;;;5096756;27;45338;-74
2022/11/02 13:01:06;;;;;;;;;9.33;4.00;;;;;;;;5081432;27;45383;-74
2022/11/02 13:03:41;;;;;;;;;4.00;2.67;;;;;;;;5077813;27;46341;-75
2022/11/02 13:06:09;;;;;;;;;3.67;2.67;;;;;;;;5078801;27;48443;-75
2022/11/02 13:08:47;;;;;;;;;5.00;3.00;;;;;;;;5093236;27;45295;-74
2022/11/02 13:11:21;;;;;;;;;2.00;2.00;;;;;;;;5096859;27;45327;-74
2022/11/02 13:13:52;;;;;;;;;5.00;2.00;;;;;;;;5097232;27;45481;-74
2022/11/02 13:16:30;;;;;;;;;5.00;3.00;;;;;;;;5099121;27;45427;-75
2022/11/02 13:18:56;;;;;;;;;5.67;1.33;;;;;;;;5087071;27;45372;-75
2022/11/02 13:21:39;;;;;;;;;3.33;1.00;;;;;;;;5078175;27;45668;-74
2022/11/02 13:24:10;;;;;;;;;3.00;1.33;;;;;;;;5096113;27;45411;-74
2022/11/02 13:26:36;;;;;;;;;6.00;3.00;;;;;;;;5098737;27;45705;-75
2022/11/02 13:29:02;;;;;;;;;4.67;2.33;;;;;;;;5085884;27;45308;-74
2022/11/02 13:31:27;;;;;;;;;3.33;2.00;;;;;;;;5094361;27;46270;-75
2022/11/02 13:33:54;;;;;;;;;3.00;2.00;;;;;;;;5089008;27;45454;-75
2022/11/02 13:36:19;;;;;;;;;3.00;2.00;;;;;;;;5096167;27;46293;-75
2022/11/02 13:38:50;;;;;;;;;6.33;3.33;;;;;;;;5090834;27;45390;-74
2022/11/02 13:41:34;;;;;;;;;3.00;2.00;;;;;;;;5095867;27;45309;-74
2022/11/02 13:44:17;;;;;;;;;3.33;2.33;;;;;;;;5091534;27;45322;-74
2022/11/02 13:46:54;;;;;;;;;2.67;1.67;;;;;;;;5089461;27;45671;-74
2022/11/02 13:49:28;;;;;;;;;2.33;1.00;;;;;;;;5091289;27;45430;-75
2022/11/02 13:52:03;;;;;;;;;3.33;1.00;;;;;;;;5075034;27;45420;-74
2022/11/02 13:54:29;;;;;;;;;3.00;3.00;;;;;;;;5091898;27;45346;-74
2022/11/02 13:56:55;;;;;;;;;3.00;2.00;;;;;;;;5094391;27;46206;-75
2022/11/02 13:59:24;;;;;;;;;3.00;1.00;;;;;;;;5094193;27;45414;-74
2022/11/02 14:01:51;;;;;;;;;2.67;1.67;;;;;;;;5092274;27;45375;-74
2022/11/02 14:04:17;;;;;;;;;3.00;1.00;;;;;;;;5091763;27;45517;-74
2022/11/02 14:06:45;;;;;;;;;8.67;2.67;;;;;;;;5093997;27;45459;-74
2022/11/02 14:09:20;;;;;;;;;2.00;2.00;;;;;;;;5075299;27;45389;-74
2022/11/02 14:11:46;;;;;;;;;4.00;2.00;;;;;;;;5098777;27;45573;-74
2022/11/02 14:14:20;;;;;;;;;8.67;3.00;;;;;;;;5081233;27;45383;-74
2022/11/02 14:16:48;;;;;;;;;3.67;1.00;;;;;;;;5093315;27;45461;-75
2022/11/02 14:19:16;;;;;;;;;2.33;1.67;;;;;;;;5082872;27;45291;-74
2022/11/02 14:21:43;;;;;;;;;2.33;2.00;;;;;;;;5093166;27;45411;-72
2022/11/02 14:24:27;;;;;;;;;2.00;1.00;;;;;;;;5081302;27;45355;-74
2022/11/02 14:26:53;;;;;;;;;2.33;2.00;;;;;;;;5090462;27;45512;-73
2022/11/02 14:29:38;;;;;;;;;7.33;3.00;;;;;;;;5080674;27;45336;-73
2022/11/02 14:32:10;;;;;;;;;3.67;2.67;;;;;;;;5096167;27;45632;-73
2022/11/02 14:34:55;;;;;;;;;4.00;1.33;;;;;;;;5084157;27;45573;-74
2022/11/02 14:37:41;;;;;;;;;6.67;1.00;;;;;;;;5093507;27;45453;-73
2022/11/02 14:40:18;;;;;;;;;5.33;3.00;;;;;;;;5073052;27;45391;-73
2022/11/02 14:42:46;;;;;;;;;3.00;1.67;;;;;;;;5096715;27;47351;-72
2022/11/02 14:45:32;;;;;;;;;4.00;2.67;;;;;;;;5090770;27;45487;-72
2022/11/02 14:47:59;;;;;;;;;4.00;1.67;;;;;;;;5096310;27;45313;-72
2022/11/02 14:50:25;;;;;;;;;2.00;1.00;;;;;;;;5086338;27;45308;-75
2022/11/02 14:53:02;;;;;;;;;6.00;3.00;;;;;;;;5074710;27;45398;-73
2022/11/02 14:55:29;;;;;;;;;3.00;2.00;;;;;;;;5086428;27;45527;-73
2022/11/02 14:58:02;;;;;;;;;3.00;1.00;;;;;;;;5079896;27;48275;-73
2022/11/02 15:00:34;;;;;;;;;3.00;2.00;;;;;;;;5081630;27;45494;-72
2022/11/02 15:03:00;;;;;;;;;2.00;1.00;;;;;;;;5097898;27;45331;-75
2022/11/02 15:05:25;;;;;;;;;2.00;1.00;;;;;;;;5075803;27;46832;-74
2022/11/02 15:07:53;;;;;;;;;6.00;1.00;;;;;;;;5077851;27;48053;-73
2022/11/02 15:10:18;;;;;;;;;5.33;2.33;;;;;;;;5093633;27;45480;-75